createdAt,value
2023-04-05T00:01:37.813Z,8.70
2023-04-05T00:04:08.195Z,8.90
2023-04-05T00:06:37.966Z,8.90
2023-04-05T00:09:07.233Z,8.60
2023-04-05T00:11:35.842Z,9.80
2023-04-05T00:14:04.034Z,10.70
2023-04-05T00:16:32.855Z,10.30
2023-04-05T00:19:02.232Z,8.80
2023-04-05T00:21:33.315Z,8.40
2023-04-05T00:24:01.575Z,8.10
2023-04-05T00:26:30.737Z,9.50
2023-04-05T00:28:59.572Z,8.20
2023-04-05T00:31:28.881Z,7.90
2023-04-05T00:33:57.257Z,8.00
2023-04-05T00:36:27.016Z,7.40
2023-04-05T00:38:55.639Z,7.60
2023-04-05T00:41:23.785Z,8.70
2023-04-05T00:43:52.349Z,7.50
2023-04-05T00:46:22.109Z,8.60
2023-04-05T00:48:51.385Z,8.20
2023-04-05T00:51:20.293Z,7.50
2023-04-05T00:56:22.090Z,7.90
2023-04-05T00:58:57.399Z,7.90
2023-04-05T01:01:26.689Z,7.60
2023-04-05T01:04:03.241Z,7.10
2023-04-05T01:06:45.494Z,6.20
2023-04-05T01:09:32.474Z,5.20
2023-04-05T01:12:03.362Z,7.40
2023-04-05T01:14:34.405Z,8.80
2023-04-05T01:17:04.286Z,6.40
2023-04-05T01:19:35.299Z,7.40
2023-04-05T01:22:16.362Z,7.60
2023-04-05T01:25:11.100Z,6.40
2023-04-05T01:27:57.797Z,6.10
2023-04-05T01:30:32.473Z,7.50
2023-04-05T01:33:17.432Z,7.60
2023-04-05T01:35:52.642Z,7.40
2023-04-05T01:38:25.291Z,7.30
2023-04-05T01:40:53.838Z,6.10
2023-04-05T01:43:24.062Z,5.40
2023-04-05T01:45:52.358Z,6.40
2023-04-05T01:48:21.279Z,6.40
2023-04-05T01:50:50.065Z,7.30
2023-04-05T01:53:18.036Z,7.70
2023-04-05T01:55:46.542Z,6.30
2023-04-05T01:58:15.481Z,6.10
2023-04-05T02:00:44.356Z,5.90
2023-04-05T02:03:13.101Z,6.20
2023-04-05T02:05:42.358Z,6.20
2023-04-05T02:08:13.516Z,5.80
2023-04-05T02:10:43.006Z,6.80
2023-04-05T02:13:11.491Z,6.10
2023-04-05T02:15:40.451Z,5.40
2023-04-05T02:18:09.551Z,6.30
2023-04-05T02:20:37.822Z,6.90
2023-04-05T02:23:07.614Z,7.70
2023-04-05T02:25:36.095Z,6.50
2023-04-05T02:28:10.725Z,7.40
2023-04-05T02:30:40.417Z,5.90
2023-04-05T02:33:12.726Z,6.30
2023-04-05T02:35:42.989Z,5.40
2023-04-05T02:38:13.228Z,5.20
2023-04-05T02:40:42.357Z,5.20
2023-04-05T02:43:10.946Z,6.20
2023-04-05T02:45:40.042Z,6.30
2023-04-05T02:48:09.020Z,5.80
2023-04-05T02:50:37.301Z,4.50
2023-04-05T02:53:08.504Z,5.70
2023-04-05T02:55:37.868Z,7.70
2023-04-05T02:58:08.803Z,7.40
2023-04-05T03:00:42.568Z,6.30
2023-04-05T03:03:11.819Z,5.70
2023-04-05T03:05:43.477Z,6.20
2023-04-05T03:08:19.706Z,6.00
2023-04-05T03:10:54.769Z,7.60
2023-04-05T03:13:22.893Z,7.10
2023-04-05T03:15:55.062Z,7.20
2023-04-05T03:18:25.997Z,6.60
2023-04-05T03:20:57.019Z,4.40
2023-04-05T03:23:29.792Z,4.00
2023-04-05T03:25:57.913Z,4.90
2023-04-05T03:28:27.027Z,5.50
2023-04-05T03:30:57.756Z,5.80
2023-04-05T03:33:26.116Z,7.00
2023-04-05T03:35:55.048Z,7.70
2023-04-05T03:38:24.123Z,8.10
2023-04-05T03:41:06.862Z,6.20
2023-04-05T03:43:38.097Z,6.00
2023-04-05T03:46:07.007Z,5.70
2023-04-05T03:48:36.893Z,7.30
2023-04-05T03:51:05.660Z,8.10
2023-04-05T03:53:34.239Z,9.20
2023-04-05T03:56:02.434Z,5.70
2023-04-05T03:58:46.453Z,5.00
2023-04-05T04:01:15.687Z,5.10
2023-04-05T04:03:45.028Z,5.20
2023-04-05T04:06:13.249Z,5.20
2023-04-05T04:08:43.131Z,7.30
2023-04-05T04:11:11.843Z,7.40
2023-04-05T04:13:42.366Z,5.30
2023-04-05T04:16:18.280Z,4.10
2023-04-05T04:19:18.947Z,4.70
2023-04-05T04:22:10.300Z,5.80
2023-04-05T04:24:50.267Z,6.50
2023-04-05T04:27:39.780Z,6.40
2023-04-05T04:30:18.542Z,4.90
2023-04-05T04:33:09.110Z,4.90
2023-04-05T04:35:40.702Z,4.00
2023-04-05T04:41:17.784Z,6.00
2023-04-05T04:44:03.171Z,6.80
2023-04-05T04:46:34.999Z,6.80
2023-04-05T04:49:17.406Z,5.90
2023-04-05T04:51:51.678Z,5.30
2023-04-05T04:54:23.040Z,6.20
2023-04-05T04:56:51.989Z,8.10
2023-04-05T04:59:20.736Z,9.60
2023-04-05T05:01:53.231Z,7.60
2023-04-05T05:04:23.076Z,8.50
2023-04-05T05:06:53.802Z,10.90
2023-04-05T05:09:21.981Z,10.20
2023-04-05T05:11:59.235Z,9.40
2023-04-05T05:14:27.451Z,12.90
2023-04-05T05:16:59.289Z,10.50
2023-04-05T05:19:31.935Z,9.10
2023-04-05T05:22:00.548Z,6.60
2023-04-05T05:24:28.896Z,5.70
2023-04-05T05:26:57.271Z,8.00
2023-04-05T05:29:25.929Z,8.30
2023-04-05T05:31:55.151Z,6.00
2023-04-05T05:34:28.334Z,5.40
2023-04-05T05:37:01.768Z,5.90
2023-04-05T05:39:30.397Z,7.10
2023-04-05T05:41:59.096Z,4.90
2023-04-05T05:44:28.464Z,5.30
2023-04-05T05:46:58.924Z,4.90
2023-04-05T05:49:27.317Z,5.10
2023-04-05T05:51:59.031Z,6.30
2023-04-05T05:54:31.228Z,3.90
2023-04-05T05:56:59.552Z,4.60
2023-04-05T05:59:28.217Z,5.30
2023-04-05T06:01:56.643Z,5.60
2023-04-05T06:04:28.497Z,5.10
2023-04-05T06:06:57.877Z,5.50
2023-04-05T06:09:29.415Z,5.40
2023-04-05T06:11:58.703Z,6.80
2023-04-05T06:14:27.291Z,5.80
2023-04-05T06:17:05.018Z,4.70
2023-04-05T06:19:35.418Z,5.30
2023-04-05T06:22:03.590Z,4.40
2023-04-05T06:24:33.401Z,4.40
2023-04-05T06:27:02.819Z,4.70
2023-04-05T06:32:02.333Z,5.20
2023-04-05T06:34:31.123Z,5.50
2023-04-05T06:39:29.316Z,4.90
2023-04-05T06:41:58.106Z,4.30
2023-04-05T06:46:55.682Z,6.60
2023-04-05T06:49:23.930Z,5.80
2023-04-05T06:51:52.445Z,5.50
2023-04-05T06:54:24.265Z,6.30
2023-04-05T06:56:52.894Z,5.20
2023-04-05T06:59:21.651Z,4.90
2023-04-05T07:01:50.680Z,6.00
2023-04-05T07:04:19.080Z,5.00
2023-04-05T07:06:47.337Z,5.30
2023-04-05T07:09:21.458Z,5.50
2023-04-05T07:11:50.251Z,6.00
2023-04-05T07:14:18.519Z,7.20
2023-04-05T07:16:52.547Z,6.40
2023-04-05T07:19:20.715Z,6.10
2023-04-05T07:21:49.404Z,8.40
2023-04-05T07:24:20.649Z,7.30
2023-04-05T07:26:48.858Z,6.90
2023-04-05T07:29:17.768Z,7.80
2023-04-05T07:31:47.272Z,7.20
2023-04-05T07:34:15.855Z,7.50
2023-04-05T07:36:44.081Z,7.10
2023-04-05T07:39:12.871Z,7.30
2023-04-05T07:41:42.761Z,6.50
2023-04-05T07:44:13.633Z,7.10
2023-04-05T07:46:46.876Z,6.00
2023-04-05T07:49:16.650Z,6.80
2023-04-05T07:51:46.550Z,8.70
2023-04-05T07:54:14.849Z,9.10
2023-04-05T07:56:43.106Z,7.90
2023-04-05T07:59:12.979Z,10.00
2023-04-05T08:01:43.147Z,10.20
2023-04-05T08:04:11.463Z,11.10
2023-04-05T08:06:40.033Z,11.40
2023-04-05T08:09:09.287Z,13.00
2023-04-05T08:11:37.586Z,10.30
2023-04-05T08:14:06.807Z,10.90
2023-04-05T08:16:35.039Z,12.60
2023-04-05T08:19:03.702Z,10.80
2023-04-05T08:21:31.931Z,11.60
2023-04-05T08:24:01.750Z,11.30
2023-04-05T08:26:30.672Z,10.00
2023-04-05T08:28:59.379Z,8.60
2023-04-05T08:31:28.750Z,12.00
2023-04-05T08:33:57.475Z,9.20
2023-04-05T08:36:27.440Z,8.40
2023-04-05T08:38:55.915Z,8.90
2023-04-05T08:41:24.296Z,8.00
2023-04-05T08:44:00.283Z,9.00
2023-04-05T08:46:33.891Z,8.50
2023-04-05T08:49:07.629Z,8.20
2023-04-05T08:51:39.585Z,8.40
2023-04-05T08:54:10.167Z,7.40
2023-04-05T08:56:38.316Z,7.60
2023-04-05T08:59:09.684Z,6.60
2023-04-05T09:01:41.848Z,7.70
2023-04-05T09:04:14.757Z,9.00
2023-04-05T09:06:44.945Z,7.30
2023-04-05T09:09:13.103Z,6.40
2023-04-05T09:11:43.309Z,6.90
2023-04-05T09:14:12.585Z,7.20
2023-04-05T09:16:46.620Z,7.60
2023-04-05T09:19:16.845Z,6.40
2023-04-05T09:22:04.772Z,6.10
2023-04-05T09:24:43.511Z,5.90
2023-04-05T09:27:16.281Z,5.80
2023-04-05T09:29:49.753Z,6.60
2023-04-05T09:32:20.814Z,7.20
2023-04-05T09:34:50.733Z,7.30
2023-04-05T09:37:24.009Z,7.30
2023-04-05T09:39:55.809Z,6.70
2023-04-05T09:42:24.814Z,7.90
2023-04-05T09:44:57.375Z,7.30
2023-04-05T09:47:34.320Z,7.00
2023-04-05T09:50:25.887Z,8.50
2023-04-05T09:53:17.184Z,7.80
2023-04-05T09:55:47.088Z,7.30
2023-04-05T09:58:21.755Z,7.00
2023-04-05T10:00:57.899Z,6.40
2023-04-05T10:03:29.728Z,6.30
2023-04-05T10:05:58.328Z,8.80
2023-04-05T10:08:27.387Z,8.40
2023-04-05T10:10:56.515Z,7.40
2023-04-05T10:13:24.787Z,7.40
2023-04-05T10:15:55.481Z,7.50
2023-04-05T10:18:26.591Z,7.70
2023-04-05T10:20:55.867Z,7.60
2023-04-05T10:23:32.304Z,8.90
2023-04-05T10:26:41.507Z,7.60
2023-04-05T10:29:16.468Z,8.40
2023-04-05T10:31:54.735Z,7.50
2023-04-05T10:35:01.407Z,7.80
2023-04-05T10:37:39.310Z,7.80
2023-04-05T10:40:09.170Z,8.40
2023-04-05T10:42:44.204Z,8.10
2023-04-05T10:45:15.848Z,12.10
2023-04-05T10:47:52.112Z,9.30
2023-04-05T10:50:24.274Z,9.00
2023-04-05T10:52:53.809Z,9.90
2023-04-05T10:55:22.844Z,10.00
2023-04-05T10:57:51.091Z,10.70
2023-04-05T11:00:19.949Z,9.30
2023-04-05T11:02:52.430Z,10.70
2023-04-05T11:05:34.989Z,9.30
2023-04-05T11:08:07.271Z,9.90
2023-04-05T11:10:37.138Z,10.10
2023-04-05T11:13:07.693Z,10.80
2023-04-05T11:15:36.281Z,10.90
2023-04-05T11:18:17.927Z,11.10
2023-04-05T11:20:48.551Z,12.00
2023-04-05T11:23:21.705Z,11.00
2023-04-05T11:25:53.724Z,11.20
2023-04-05T11:28:26.506Z,11.30
2023-04-05T11:30:59.050Z,10.60
2023-04-05T11:33:37.531Z,11.00
2023-04-05T11:36:06.992Z,11.20
2023-04-05T11:38:35.802Z,12.80
2023-04-05T11:41:21.279Z,11.70
2023-04-05T11:43:51.391Z,11.80
2023-04-05T11:48:50.681Z,12.10
2023-04-05T11:51:18.986Z,13.20
2023-04-05T11:53:47.384Z,12.60
2023-04-05T11:56:20.213Z,13.10
2023-04-05T11:58:48.425Z,14.30
2023-04-05T12:01:16.701Z,13.80
2023-04-05T12:03:46.707Z,14.60
2023-04-05T12:06:15.538Z,15.90
2023-04-05T12:08:50.974Z,13.70
2023-04-05T12:11:25.712Z,14.40
2023-04-05T12:14:02.658Z,15.70
2023-04-05T12:16:31.218Z,15.60
2023-04-05T12:19:00.909Z,16.30
2023-04-05T12:21:29.565Z,14.30
2023-04-05T12:23:58.924Z,14.20
2023-04-05T12:26:27.034Z,16.60
2023-04-05T12:28:58.836Z,15.70
2023-04-05T12:31:46.329Z,15.20
2023-04-05T12:34:14.818Z,15.60
2023-04-05T12:36:46.317Z,14.70
2023-04-05T12:39:16.433Z,15.30
2023-04-05T12:44:15.898Z,16.10
2023-04-05T12:46:45.675Z,15.90
2023-04-05T12:49:17.735Z,14.80
2023-04-05T12:51:46.619Z,13.90
2023-04-05T12:54:25.866Z,16.60
2023-04-05T12:56:54.727Z,14.80
2023-04-05T12:59:23.374Z,15.90
2023-04-05T13:01:52.451Z,14.20
2023-04-05T13:04:23.266Z,16.10
2023-04-05T13:06:55.243Z,14.80
2023-04-05T13:09:23.675Z,15.70
2023-04-05T13:11:51.974Z,13.90
2023-04-05T13:14:20.026Z,16.70
2023-04-05T13:16:48.768Z,15.60
2023-04-05T13:19:16.772Z,16.40
2023-04-05T13:21:45.842Z,18.80
2023-04-05T13:24:13.863Z,14.80
2023-04-05T13:26:45.344Z,17.50
2023-04-05T13:29:13.377Z,14.80
2023-04-05T13:31:41.624Z,15.60
2023-04-05T13:34:13.665Z,15.70
2023-04-05T13:36:41.856Z,15.80
2023-04-05T13:39:12.430Z,16.30
2023-04-05T13:41:40.710Z,17.60
2023-04-05T13:44:08.745Z,16.00
2023-04-05T13:46:37.462Z,16.30
2023-04-05T13:49:06.178Z,16.40
2023-04-05T13:51:37.067Z,17.30
2023-04-05T13:54:05.381Z,17.20
2023-04-05T13:56:38.450Z,17.10
2023-04-05T13:59:07.024Z,16.50
2023-04-05T14:01:35.278Z,17.80
2023-04-05T14:04:03.458Z,17.20
2023-04-05T14:06:31.753Z,18.30
2023-04-05T14:09:00.114Z,17.80
2023-04-05T14:11:28.946Z,18.40
2023-04-05T14:13:57.195Z,16.60
2023-04-05T14:16:25.639Z,18.10
2023-04-05T14:18:56.827Z,19.00
2023-04-05T14:21:26.310Z,19.60
2023-04-05T14:23:57.171Z,18.00
2023-04-05T14:26:26.385Z,18.90
2023-04-05T14:28:54.765Z,20.30
2023-04-05T14:31:27.108Z,18.50
2023-04-05T14:33:56.116Z,19.10
2023-04-05T14:36:24.405Z,18.60
2023-04-05T14:38:56.629Z,20.50
2023-04-05T14:41:25.272Z,19.90
2023-04-05T14:43:54.242Z,20.60
2023-04-05T14:46:23.277Z,20.20
2023-04-05T14:48:51.653Z,21.00
2023-04-05T14:51:19.958Z,21.80
2023-04-05T14:53:48.180Z,23.10
2023-04-05T14:56:17.519Z,25.30
2023-04-05T14:58:45.717Z,26.10
2023-04-05T15:01:13.782Z,26.70
2023-04-05T15:03:43.923Z,30.10
2023-04-05T15:06:12.546Z,28.20
2023-04-05T15:08:40.750Z,24.70
2023-04-05T15:11:12.764Z,23.50
2023-04-05T15:13:41.292Z,24.00
2023-04-05T15:16:12.756Z,23.90
2023-04-05T15:18:42.362Z,28.30
2023-04-05T15:21:11.284Z,26.30
2023-04-05T15:23:40.939Z,24.60
2023-04-05T15:26:09.260Z,24.90
2023-04-05T15:28:37.350Z,22.00
2023-04-05T15:31:06.088Z,23.30
2023-04-05T15:33:34.547Z,23.70
2023-04-05T15:36:02.874Z,23.70
2023-04-05T15:38:31.263Z,23.30
2023-04-05T15:40:59.837Z,28.90
2023-04-05T15:43:28.007Z,28.40
2023-04-05T15:45:56.306Z,23.90
2023-04-05T15:48:24.436Z,24.70
2023-04-05T15:51:16.489Z,25.20
2023-04-05T15:53:45.280Z,26.60
2023-04-05T15:56:13.461Z,27.20
2023-04-05T15:58:41.948Z,26.00
2023-04-05T16:01:10.059Z,27.10
2023-04-05T16:03:39.682Z,27.20
2023-04-05T16:06:08.184Z,28.90
2023-04-05T16:08:36.702Z,27.00
2023-04-05T16:11:04.873Z,25.90
2023-04-05T16:13:39.985Z,27.40
2023-04-05T16:16:09.013Z,28.10
2023-04-05T16:18:37.197Z,29.90
2023-04-05T16:21:05.672Z,28.50
2023-04-05T16:23:34.839Z,25.20
2023-04-05T16:26:03.023Z,29.20
2023-04-05T16:28:31.975Z,30.40
2023-04-05T16:31:00.232Z,32.90
2023-04-05T16:33:28.562Z,30.60
2023-04-05T16:35:57.599Z,30.90
2023-04-05T16:38:26.905Z,29.70
2023-04-05T16:40:57.915Z,30.10
2023-04-05T16:43:26.082Z,29.80
2023-04-05T16:45:54.234Z,29.90
2023-04-05T16:48:23.898Z,34.20
2023-04-05T16:50:52.023Z,31.70
2023-04-05T16:53:20.193Z,32.60
2023-04-05T16:55:48.543Z,31.30
2023-04-05T16:58:17.034Z,32.90
2023-04-05T17:00:45.827Z,34.20
2023-04-05T17:03:17.770Z,32.10
2023-04-05T17:05:47.150Z,31.70
2023-04-05T17:08:16.110Z,30.70
2023-04-05T17:10:44.446Z,29.90
2023-04-05T17:13:12.567Z,31.30
2023-04-05T17:15:47.572Z,33.30
2023-04-05T17:18:16.448Z,34.80
2023-04-05T17:20:44.722Z,36.70
2023-04-05T17:23:12.801Z,36.60
2023-04-05T17:25:41.130Z,36.40
2023-04-05T17:28:10.021Z,33.10
2023-04-05T17:30:38.836Z,35.00
2023-04-05T17:33:07.684Z,33.60
2023-04-05T17:35:36.820Z,37.30
2023-04-05T17:38:05.694Z,39.20
2023-04-05T17:40:33.958Z,40.30
2023-04-05T17:43:26.899Z,38.30
2023-04-05T17:45:55.148Z,32.50
2023-04-05T17:48:23.946Z,34.10
2023-04-05T17:50:53.264Z,33.70
2023-04-05T17:53:22.248Z,37.30
2023-04-05T17:55:50.495Z,40.50
2023-04-05T17:58:19.430Z,38.70
2023-04-05T18:00:50.694Z,36.60
2023-04-05T18:03:19.569Z,35.50
2023-04-05T18:08:46.984Z,33.40
2023-04-05T18:11:15.256Z,39.00
2023-04-05T18:13:43.606Z,38.10
2023-04-05T18:16:12.570Z,44.20
2023-04-05T18:18:42.734Z,40.40
2023-04-05T18:21:10.820Z,38.00
2023-04-05T18:23:39.269Z,35.20
2023-04-05T18:26:08.227Z,52.70
2023-04-05T18:28:36.575Z,42.20
2023-04-05T18:31:05.019Z,41.10
2023-04-05T18:33:34.404Z,59.20
2023-04-05T18:36:03.250Z,46.50
2023-04-05T18:38:32.099Z,43.30
2023-04-05T18:41:02.172Z,39.20
2023-04-05T18:43:31.900Z,37.40
2023-04-05T18:46:00.618Z,41.70
2023-04-05T18:48:30.352Z,45.60
2023-04-05T18:50:58.653Z,43.50
2023-04-05T18:53:26.762Z,42.50
2023-04-05T18:55:55.185Z,41.70
2023-04-05T18:58:23.714Z,35.40
2023-04-05T19:00:51.779Z,42.80
2023-04-05T19:03:20.744Z,38.30
2023-04-05T19:05:56.949Z,39.40
2023-04-05T19:08:31.039Z,42.20
2023-04-05T19:10:59.532Z,45.00
2023-04-05T19:13:27.799Z,42.00
2023-04-05T19:15:57.299Z,39.40
2023-04-05T19:18:28.016Z,42.80
2023-04-05T19:21:00.797Z,45.30
2023-04-05T19:23:30.496Z,45.20
2023-04-05T19:25:58.663Z,44.80
2023-04-05T19:28:27.320Z,42.40
2023-04-05T19:30:55.854Z,42.90
2023-04-05T19:33:27.068Z,41.00
2023-04-05T19:35:57.926Z,44.50
2023-04-05T19:38:26.255Z,47.40
2023-04-05T19:40:58.005Z,49.00
2023-04-05T19:43:27.290Z,43.40
2023-04-05T19:45:57.264Z,40.30
2023-04-05T19:48:42.506Z,39.00
2023-04-05T19:51:11.940Z,44.00
2023-04-05T19:53:50.495Z,47.30
2023-04-05T19:56:30.010Z,45.90
2023-04-05T19:59:13.785Z,48.20
2023-04-05T20:01:47.322Z,44.20
2023-04-05T20:04:20.014Z,41.20
2023-04-05T20:06:54.305Z,36.90
2023-04-05T20:09:24.873Z,39.50
2023-04-05T20:12:01.408Z,42.80
2023-04-05T20:14:42.057Z,41.50
2023-04-05T20:17:12.580Z,38.20
2023-04-05T20:19:41.610Z,40.40
2023-04-05T20:22:10.153Z,41.80
2023-04-05T20:24:39.738Z,41.60
2023-04-05T20:27:15.183Z,38.90
2023-04-05T20:29:43.800Z,39.20
2023-04-05T20:32:11.973Z,43.40
2023-04-05T20:34:43.756Z,42.10
2023-04-05T20:37:19.333Z,41.40
2023-04-05T20:39:47.481Z,38.30
2023-04-05T20:42:16.382Z,36.50
2023-04-05T20:44:49.246Z,35.60
2023-04-05T20:47:17.543Z,36.50
2023-04-05T20:49:47.743Z,38.40
2023-04-05T20:52:17.610Z,34.90
2023-04-05T20:54:47.280Z,36.10
2023-04-05T20:57:16.305Z,36.70
2023-04-05T20:59:44.738Z,36.80
2023-04-05T21:02:12.825Z,40.00
2023-04-05T21:04:41.779Z,37.70
2023-04-05T21:07:10.356Z,40.80
2023-04-05T21:09:38.450Z,39.70
2023-04-05T21:12:08.833Z,40.80
2023-04-05T21:14:37.190Z,40.50
2023-04-05T21:17:05.513Z,39.70
2023-04-05T21:19:34.000Z,39.20
2023-04-05T21:22:02.917Z,35.50
2023-04-05T21:24:31.250Z,35.40
2023-04-05T21:26:59.865Z,38.30
2023-04-05T21:29:37.605Z,37.80
2023-04-05T21:32:06.498Z,33.30
2023-04-05T21:34:34.987Z,34.90
2023-04-05T21:37:04.269Z,42.10
2023-04-05T21:39:32.954Z,33.20
2023-04-05T21:42:01.348Z,37.40
2023-04-05T21:44:30.219Z,34.60
2023-04-05T21:46:59.526Z,33.70
2023-04-05T21:49:38.360Z,34.30
2023-04-05T21:52:06.542Z,31.60
2023-04-05T21:54:34.601Z,29.70
2023-04-05T21:57:04.198Z,34.40
2023-04-05T21:59:32.445Z,31.80
2023-04-05T22:02:01.953Z,33.60
2023-04-05T22:04:30.489Z,30.30
2023-04-05T22:06:58.822Z,33.90
2023-04-05T22:09:28.387Z,32.40
2023-04-05T22:12:01.612Z,31.00
2023-04-05T22:14:30.848Z,31.30
2023-04-05T22:16:59.089Z,33.60
2023-04-05T22:19:32.226Z,31.20
2023-04-05T22:22:00.611Z,32.00
2023-04-05T22:24:29.248Z,32.00
2023-04-05T22:26:57.489Z,31.50
2023-04-05T22:29:25.965Z,35.00
2023-04-05T22:31:54.722Z,30.00
2023-04-05T22:34:23.087Z,31.80
2023-04-05T22:36:51.331Z,29.90
2023-04-05T22:39:20.949Z,31.90
2023-04-05T22:41:49.401Z,33.70
2023-04-05T22:44:21.800Z,35.80
2023-04-05T22:46:50.612Z,33.60
2023-04-05T22:49:18.808Z,34.80
2023-04-05T22:51:46.954Z,30.00
2023-04-05T22:54:15.219Z,29.10
2023-04-05T22:56:44.800Z,29.30
2023-04-05T22:59:13.258Z,27.30
2023-04-05T23:01:41.480Z,28.80
2023-04-05T23:04:10.085Z,28.10
2023-04-05T23:06:39.492Z,29.50
2023-04-05T23:09:08.383Z,27.30
2023-04-05T23:11:37.090Z,27.50
2023-04-05T23:14:06.597Z,26.30
2023-04-05T23:16:35.651Z,28.20
2023-04-05T23:19:04.642Z,28.70
2023-04-05T23:21:33.637Z,26.00
2023-04-05T23:24:02.658Z,26.30
2023-04-05T23:26:30.926Z,27.80
2023-04-05T23:28:59.127Z,26.60
2023-04-05T23:31:28.440Z,26.40
2023-04-05T23:33:56.901Z,25.80
2023-04-05T23:36:29.559Z,24.60
2023-04-05T23:39:00.165Z,23.90
2023-04-05T23:41:28.480Z,25.50
2023-04-05T23:43:57.450Z,24.70
2023-04-05T23:46:26.450Z,22.90
2023-04-05T23:48:54.494Z,22.80
2023-04-05T23:51:22.848Z,27.10
2023-04-05T23:53:52.860Z,26.70
2023-04-05T23:56:21.296Z,25.20
2023-04-05T23:58:49.613Z,27.90
